createdAt,value
2018-09-14T00:00:16.726Z,78.92
2018-09-14T00:01:16.864Z,78.98
2018-09-14T00:02:17.006Z,78.78
2018-09-14T00:03:17.148Z,78.78
2018-09-14T00:04:17.285Z,79.36
2018-09-14T00:05:17.418Z,78.88
2018-09-14T00:06:17.560Z,78.98
2018-09-14T00:07:17.694Z,78.69
2018-09-14T00:08:17.833Z,78.88
2018-09-14T00:09:17.979Z,79.07
2018-09-14T00:10:18.118Z,78.78
2018-09-14T00:11:18.250Z,79.07
2018-09-14T00:12:18.388Z,79.07
2018-09-14T00:13:18.527Z,78.98
2018-09-14T00:14:18.676Z,78.88
2018-09-14T00:15:18.817Z,79.17
2018-09-14T00:16:18.951Z,79.07
2018-09-14T00:17:19.092Z,79.17
2018-09-14T00:18:19.230Z,79.17
2018-09-14T00:19:19.363Z,79.17
2018-09-14T00:20:19.535Z,79.17
2018-09-14T00:21:19.739Z,79.27
2018-09-14T00:22:19.768Z,78.88
2018-09-14T00:23:19.905Z,79.07
2018-09-14T00:24:20.037Z,78.78
2018-09-14T00:25:20.180Z,78.59
2018-09-14T00:26:20.317Z,78.69
2018-09-14T00:27:20.456Z,79.46
2018-09-14T00:28:20.592Z,79.27
2018-09-14T00:29:20.733Z,79.46
2018-09-14T00:30:20.886Z,79.27
2018-09-14T00:31:21.020Z,79.17
2018-09-14T00:32:21.157Z,79.27
2018-09-14T00:33:21.297Z,79.55
2018-09-14T00:34:21.432Z,79.55
2018-09-14T00:35:21.569Z,79.46
2018-09-14T00:36:21.715Z,79.55
2018-09-14T00:37:21.848Z,79.17
2018-09-14T00:38:21.991Z,79.17
2018-09-14T00:39:22.126Z,79.36
2018-09-14T00:40:22.261Z,79.27
2018-09-14T00:41:22.397Z,79.27
2018-09-14T00:42:22.542Z,79.27
2018-09-14T00:43:22.684Z,79.46
2018-09-14T00:44:22.823Z,79.46
2018-09-14T00:45:22.966Z,79.46
2018-09-14T00:46:23.101Z,79.17
2018-09-14T00:47:23.238Z,79.65
2018-09-14T00:48:23.380Z,79.84
2018-09-14T00:49:23.511Z,79.75
2018-09-14T00:50:23.657Z,79.65
2018-09-14T00:51:23.795Z,79.55
2018-09-14T00:52:23.933Z,79.55
2018-09-14T00:53:24.213Z,79.75
2018-09-14T00:54:24.195Z,79.65
2018-09-14T00:55:24.338Z,79.46
2018-09-14T00:56:24.469Z,79.55
2018-09-14T00:57:24.614Z,79.55
2018-09-14T00:58:24.751Z,79.65
2018-09-14T00:59:24.889Z,79.55
2018-09-14T01:00:25.031Z,79.46
2018-09-14T01:01:25.161Z,79.46
2018-09-14T01:02:25.316Z,79.55
2018-09-14T01:03:25.452Z,79.65
2018-09-14T01:04:25.585Z,79.84
2018-09-14T01:05:25.719Z,79.55
2018-09-14T01:06:25.859Z,79.36
2018-09-14T01:07:25.995Z,79.27
2018-09-14T01:08:26.137Z,79.46
2018-09-14T01:09:26.275Z,79.27
2018-09-14T01:10:26.419Z,79.46
2018-09-14T01:11:26.573Z,79.65
2018-09-14T01:12:26.742Z,79.55
2018-09-14T01:13:26.861Z,79.65
2018-09-14T01:14:26.997Z,79.46
2018-09-14T01:15:27.144Z,79.55
2018-09-14T01:16:27.279Z,79.75
2018-09-14T01:17:27.417Z,79.55
2018-09-14T01:18:27.559Z,79.65
2018-09-14T01:19:27.695Z,79.46
2018-09-14T01:20:27.835Z,79.65
2018-09-14T01:21:27.972Z,79.65
2018-09-14T01:22:28.113Z,79.36
2018-09-14T01:23:28.249Z,79.75
2018-09-14T01:24:28.389Z,79.55
2018-09-14T01:25:28.531Z,79.65
2018-09-14T01:26:28.672Z,79.27
2018-09-14T01:27:28.809Z,79.46
2018-09-14T01:28:28.963Z,79.55
2018-09-14T01:29:29.097Z,79.27
2018-09-14T01:30:29.235Z,79.84
2018-09-14T01:31:29.373Z,79.75
2018-09-14T01:32:29.516Z,79.75
2018-09-14T01:33:29.654Z,79.75
2018-09-14T01:34:29.807Z,79.46
2018-09-14T01:35:29.935Z,79.36
2018-09-14T01:36:30.077Z,79.46
2018-09-14T01:37:30.270Z,79.55
2018-09-14T01:38:30.446Z,79.17
2018-09-14T01:39:30.585Z,79.42
2018-09-14T01:40:30.723Z,78.98
2018-09-14T01:41:30.881Z,78.69
2018-09-14T01:42:31.014Z,78.69
2018-09-14T01:43:31.159Z,78.84
2018-09-14T01:44:31.294Z,78.88
2018-09-14T01:45:31.425Z,79.52
2018-09-14T01:46:32.492Z,79.42
2018-09-14T01:47:31.642Z,79.61
2018-09-14T01:48:31.802Z,79.52
2018-09-14T01:49:31.931Z,79.52
2018-09-14T01:50:32.065Z,79.61
2018-09-14T01:51:32.204Z,79.52
2018-09-14T01:52:32.348Z,79.42
2018-09-14T01:53:32.485Z,79.22
2018-09-14T01:54:32.615Z,79.42
2018-09-14T01:55:32.764Z,79.46
2018-09-14T01:56:32.915Z,79.61
2018-09-14T01:57:33.047Z,79.52
2018-09-14T01:58:33.185Z,79.52
2018-09-14T01:59:33.349Z,80.13
2018-09-14T02:00:33.481Z,79.99
2018-09-14T02:01:33.621Z,80.42
2018-09-14T02:02:33.787Z,80.09
2018-09-14T02:03:33.955Z,80.19
2018-09-14T02:04:34.059Z,80.38
2018-09-14T02:05:34.231Z,80.09
2018-09-14T02:06:34.366Z,80.09
2018-09-14T02:07:34.510Z,80.19
2018-09-14T02:08:34.646Z,80.09
2018-09-14T02:09:34.812Z,80.38
2018-09-14T02:10:34.947Z,80.19
2018-09-14T02:11:35.085Z,79.61
2018-09-14T02:12:35.222Z,79.61
2018-09-14T02:13:35.365Z,79.71
2018-09-14T02:14:35.508Z,79.42
2018-09-14T02:15:35.652Z,79.22
2018-09-14T02:16:35.790Z,79.61
2018-09-14T02:17:35.927Z,79.42
2018-09-14T02:18:36.064Z,79.22
2018-09-14T02:19:36.205Z,79.52
2018-09-14T02:20:36.342Z,79.22
2018-09-14T02:21:36.478Z,79.75
2018-09-14T02:22:36.619Z,79.42
2018-09-14T02:23:36.759Z,79.32
2018-09-14T02:24:36.899Z,79.52
2018-09-14T02:25:37.066Z,79.42
2018-09-14T02:26:37.177Z,79.22
2018-09-14T02:27:37.312Z,79.42
2018-09-14T02:28:37.453Z,79.42
2018-09-14T02:29:37.594Z,79.42
2018-09-14T02:30:37.735Z,79.13
2018-09-14T02:31:37.884Z,78.65
2018-09-14T02:32:38.024Z,78.55
2018-09-14T02:33:38.237Z,78.84
2018-09-14T02:34:38.258Z,78.88
2018-09-14T02:35:38.393Z,78.65
2018-09-14T02:36:38.541Z,78.65
2018-09-14T02:37:38.671Z,78.65
2018-09-14T02:38:38.811Z,79.22
2018-09-14T02:39:38.972Z,79.13
2018-09-14T02:40:39.090Z,79.42
2018-09-14T02:41:39.224Z,79.32
2018-09-14T02:42:39.380Z,79.99
2018-09-14T02:43:39.509Z,79.42
2018-09-14T02:44:39.651Z,79.42
2018-09-14T02:45:39.793Z,79.42
2018-09-14T02:46:39.935Z,79.52
2018-09-14T02:47:40.069Z,79.42
2018-09-14T02:48:40.222Z,79.52
2018-09-14T02:49:40.359Z,79.61
2018-09-14T02:50:40.494Z,79.22
2018-09-14T02:51:40.633Z,79.42
2018-09-14T02:52:40.771Z,79.32
2018-09-14T02:53:40.934Z,79.22
2018-09-14T02:54:41.070Z,79.52
2018-09-14T02:55:41.210Z,79.42
2018-09-14T02:56:41.350Z,79.61
2018-09-14T02:57:41.504Z,79.52
2018-09-14T02:58:41.638Z,79.42
2018-09-14T02:59:41.777Z,79.42
2018-09-14T03:00:41.912Z,79.61
2018-09-14T03:01:42.099Z,79.61
2018-09-14T03:02:42.217Z,79.71
2018-09-14T03:03:42.360Z,79.52
2018-09-14T03:04:42.533Z,79.52
2018-09-14T03:05:42.648Z,79.42
2018-09-14T03:06:42.789Z,79.52
2018-09-14T03:07:42.927Z,79.61
2018-09-14T03:08:43.083Z,79.61
2018-09-14T03:09:43.235Z,79.52
2018-09-14T03:10:43.366Z,79.90
2018-09-14T03:11:43.512Z,79.42
2018-09-14T03:12:43.649Z,79.61
2018-09-14T03:13:43.785Z,79.52
2018-09-14T03:14:43.921Z,79.61
2018-09-14T03:15:44.059Z,79.71
2018-09-14T03:16:44.215Z,79.13
2018-09-14T03:17:44.358Z,79.22
2018-09-14T03:18:44.496Z,79.61
2018-09-14T03:19:44.633Z,79.61
2018-09-14T03:20:44.775Z,79.52
2018-09-14T03:21:44.920Z,79.42
2018-09-14T03:22:45.061Z,79.90
2018-09-14T03:23:45.199Z,79.61
2018-09-14T03:24:45.348Z,79.42
2018-09-14T03:25:45.493Z,79.71
2018-09-14T03:26:45.645Z,79.32
2018-09-14T03:27:45.794Z,79.52
2018-09-14T03:28:45.936Z,79.61
2018-09-14T03:29:46.093Z,79.61
2018-09-14T03:30:46.231Z,79.13
2018-09-14T03:31:46.368Z,79.61
2018-09-14T03:32:46.510Z,79.22
2018-09-14T03:33:46.649Z,79.52
2018-09-14T03:34:46.787Z,79.71
2018-09-14T03:35:46.922Z,79.32
2018-09-14T03:36:47.059Z,79.42
2018-09-14T03:37:47.195Z,79.22
2018-09-14T03:38:47.333Z,79.22
2018-09-14T03:39:47.472Z,79.52
2018-09-14T03:40:47.616Z,78.84
2018-09-14T03:41:47.752Z,79.13
2018-09-14T03:42:47.889Z,79.32
2018-09-14T03:43:48.026Z,79.42
2018-09-14T03:44:48.187Z,79.42
2018-09-14T03:45:48.322Z,79.52
2018-09-14T03:46:48.458Z,79.52
2018-09-14T03:47:48.594Z,79.61
2018-09-14T03:48:48.739Z,79.52
2018-09-14T03:49:48.886Z,79.52
2018-09-14T03:50:49.024Z,79.32
2018-09-14T03:51:49.142Z,79.71
2018-09-14T03:52:49.303Z,79.71
2018-09-14T03:53:49.440Z,79.52
2018-09-14T03:54:49.579Z,79.71
2018-09-14T03:55:49.724Z,79.71
2018-09-14T03:56:49.884Z,79.71
2018-09-14T03:57:50.023Z,79.42
2018-09-14T03:58:50.160Z,79.52
2018-09-14T03:59:50.303Z,79.47
2018-09-14T04:00:50.460Z,79.61
2018-09-14T04:01:50.595Z,79.19
2018-09-14T04:02:50.729Z,79.47
2018-09-14T04:03:50.865Z,79.61
2018-09-14T04:04:51.010Z,79.47
2018-09-14T04:05:51.150Z,79.61
2018-09-14T04:06:51.292Z,79.38
2018-09-14T04:07:51.498Z,79.32
2018-09-14T04:08:51.565Z,78.80
2018-09-14T04:09:51.699Z,78.99
2018-09-14T04:10:51.851Z,78.99
2018-09-14T04:11:51.995Z,79.03
2018-09-14T04:12:52.181Z,79.13
2018-09-14T04:13:52.288Z,79.22
2018-09-14T04:14:52.431Z,79.86
2018-09-14T04:15:52.567Z,79.57
2018-09-14T04:16:52.702Z,79.47
2018-09-14T04:17:52.844Z,79.13
2018-09-14T04:18:52.989Z,79.28
2018-09-14T04:19:53.130Z,79.52
2018-09-14T04:20:53.270Z,79.09
2018-09-14T04:21:53.409Z,79.42
2018-09-14T04:22:53.626Z,79.22
2018-09-14T04:23:53.636Z,79.42
2018-09-14T04:24:53.777Z,79.19
2018-09-14T04:25:53.918Z,78.99
2018-09-14T04:26:54.056Z,78.42
2018-09-14T04:27:54.194Z,78.61
2018-09-14T04:28:54.328Z,78.90
2018-09-14T04:29:54.471Z,78.80
2018-09-14T04:30:54.620Z,78.32
2018-09-14T04:31:54.757Z,78.70
2018-09-14T04:32:54.897Z,78.36
2018-09-14T04:33:55.036Z,78.36
2018-09-14T04:34:55.171Z,77.94
2018-09-14T04:35:55.313Z,77.75
2018-09-14T04:36:55.450Z,77.69
2018-09-14T04:37:55.595Z,77.69
2018-09-14T04:38:55.738Z,77.75
2018-09-14T04:39:55.883Z,77.59
2018-09-14T04:40:56.017Z,77.75
2018-09-14T04:41:56.161Z,77.94
2018-09-14T04:42:56.303Z,77.40
2018-09-14T04:43:56.430Z,77.56
2018-09-14T04:44:56.565Z,77.56
2018-09-14T04:45:56.701Z,77.26
2018-09-14T04:46:56.842Z,77.17
2018-09-14T04:47:57.010Z,77.08
2018-09-14T04:48:57.209Z,77.08
2018-09-14T04:49:57.224Z,77.01
2018-09-14T04:50:57.366Z,77.08
2018-09-14T04:51:57.567Z,77.26
2018-09-14T04:52:57.578Z,76.98
2018-09-14T04:53:57.719Z,76.50
2018-09-14T04:54:57.858Z,76.31
2018-09-14T04:55:58.030Z,76.88
2018-09-14T04:56:58.165Z,76.98
2018-09-14T04:57:58.302Z,76.50
2018-09-14T04:58:58.441Z,76.69
2018-09-14T04:59:58.601Z,76.92
2018-09-14T05:00:58.734Z,76.59
2018-09-14T05:01:58.869Z,76.92
2018-09-14T05:02:59.054Z,77.08
2018-09-14T05:03:59.176Z,76.40
2018-09-14T05:04:59.306Z,76.69
2018-09-14T05:05:59.448Z,76.25
2018-09-14T05:06:59.613Z,76.21
2018-09-14T05:07:59.730Z,76.15
2018-09-14T05:08:59.864Z,76.21
2018-09-14T05:09:59.997Z,76.40
2018-09-14T05:11:00.147Z,76.02
2018-09-14T05:12:00.307Z,75.96
2018-09-14T05:13:00.436Z,76.40
2018-09-14T05:14:00.593Z,76.25
2018-09-14T05:15:00.722Z,76.44
2018-09-14T05:16:00.850Z,76.15
2018-09-14T05:17:00.991Z,75.92
2018-09-14T05:18:01.131Z,75.87
2018-09-14T05:19:01.278Z,76.12
2018-09-14T05:20:01.417Z,76.50
2018-09-14T05:21:01.554Z,75.63
2018-09-14T05:22:01.696Z,76.40
2018-09-14T05:23:01.827Z,76.59
2018-09-14T05:24:01.999Z,75.73
2018-09-14T05:25:02.184Z,75.82
2018-09-14T05:26:02.252Z,76.31
2018-09-14T05:27:02.405Z,76.02
2018-09-14T05:28:02.532Z,75.82
2018-09-14T05:29:02.689Z,76.31
2018-09-14T05:30:02.809Z,75.87
2018-09-14T05:31:02.944Z,75.63
2018-09-14T05:32:03.082Z,75.92
2018-09-14T05:33:03.217Z,75.35
2018-09-14T05:34:03.358Z,75.45
2018-09-14T05:35:03.495Z,75.54
2018-09-14T05:36:03.649Z,75.35
2018-09-14T05:37:03.786Z,75.63
2018-09-14T05:38:03.922Z,75.45
2018-09-14T05:39:04.060Z,75.54
2018-09-14T05:40:04.195Z,75.45
2018-09-14T05:41:04.331Z,75.57
2018-09-14T05:42:04.479Z,75.35
2018-09-14T05:43:04.620Z,75.35
2018-09-14T05:44:04.755Z,75.35
2018-09-14T05:45:04.910Z,75.54
2018-09-14T05:46:05.049Z,75.45
2018-09-14T05:47:05.198Z,75.54
2018-09-14T05:48:05.333Z,75.45
2018-09-14T05:49:05.473Z,75.45
2018-09-14T05:50:05.609Z,75.35
2018-09-14T05:51:05.747Z,75.25
2018-09-14T05:52:05.887Z,75.54
2018-09-14T05:53:06.050Z,75.45
2018-09-14T05:54:06.247Z,75.06
2018-09-14T05:55:06.259Z,75.45
2018-09-14T05:56:06.398Z,75.06
2018-09-14T05:57:06.561Z,74.77
2018-09-14T05:58:06.699Z,74.68
2018-09-14T05:59:06.839Z,74.48
2018-09-14T06:00:06.972Z,74.39
2018-09-14T06:01:07.130Z,74.48
2018-09-14T06:02:07.273Z,74.10
2018-09-14T06:03:07.410Z,74.48
2018-09-14T06:04:07.553Z,74.10
2018-09-14T06:05:07.710Z,74.48
2018-09-14T06:06:07.860Z,74.39
2018-09-14T06:07:08.000Z,73.81
2018-09-14T06:08:08.139Z,73.91
2018-09-14T06:09:08.291Z,73.72
2018-09-14T06:10:08.425Z,73.91
2018-09-14T06:11:08.566Z,73.72
2018-09-14T06:12:08.700Z,73.81
2018-09-14T06:13:08.848Z,73.72
2018-09-14T06:14:09.043Z,74.01
2018-09-14T06:15:09.182Z,73.72
2018-09-14T06:16:09.325Z,73.43
2018-09-14T06:17:09.552Z,73.81
2018-09-14T06:18:09.688Z,73.72
2018-09-14T06:19:09.708Z,73.62
2018-09-14T06:20:09.870Z,73.72
2018-09-14T06:21:10.010Z,73.72
2018-09-14T06:22:10.151Z,72.99
2018-09-14T06:23:10.290Z,73.81
2018-09-14T06:24:10.428Z,73.43
2018-09-14T06:25:10.571Z,73.52
2018-09-14T06:26:10.706Z,73.72
2018-09-14T06:27:10.843Z,73.37
2018-09-14T06:28:10.986Z,73.24
2018-09-14T06:29:11.128Z,72.99
2018-09-14T06:30:11.270Z,73.24
2018-09-14T06:31:11.407Z,72.95
2018-09-14T06:32:11.543Z,72.95
2018-09-14T06:33:11.689Z,73.04
2018-09-14T06:34:11.824Z,73.56
2018-09-14T06:35:11.963Z,73.66
2018-09-14T06:36:12.098Z,72.95
2018-09-14T06:37:12.237Z,73.04
2018-09-14T06:38:12.383Z,73.04
2018-09-14T06:39:12.514Z,72.95
2018-09-14T06:40:12.653Z,72.85
2018-09-14T06:41:12.788Z,73.62
2018-09-14T06:42:12.929Z,73.56
2018-09-14T06:43:13.067Z,73.72
2018-09-14T06:44:13.206Z,73.14
2018-09-14T06:45:13.364Z,73.24
2018-09-14T06:46:13.492Z,73.04
2018-09-14T06:47:13.633Z,73.14
2018-09-14T06:48:13.767Z,72.99
2018-09-14T06:49:13.981Z,73.04
2018-09-14T06:50:14.089Z,73.33
2018-09-14T06:51:14.238Z,73.24
2018-09-14T06:52:14.377Z,73.04
2018-09-14T06:53:14.546Z,73.43
2018-09-14T06:54:14.672Z,73.27
2018-09-14T06:55:14.810Z,72.95
2018-09-14T06:56:14.949Z,73.46
2018-09-14T06:57:15.104Z,73.14
2018-09-14T06:58:15.245Z,73.04
2018-09-14T06:59:15.939Z,73.04
2018-09-14T07:01:47.762Z,72.66
2018-09-14T07:02:47.777Z,73.24
2018-09-14T07:03:47.916Z,72.95
2018-09-14T07:04:48.056Z,72.85
2018-09-14T07:05:48.220Z,73.24
2018-09-14T07:06:48.352Z,73.14
2018-09-14T07:07:48.489Z,73.04
2018-09-14T07:08:48.627Z,73.14
2018-09-14T07:09:48.816Z,73.14
2018-09-14T07:10:48.943Z,72.75
2018-09-14T07:11:49.081Z,73.14
2018-09-14T07:12:49.226Z,73.33
2018-09-14T07:13:49.382Z,72.89
2018-09-14T07:14:49.581Z,72.66
2018-09-14T07:15:49.595Z,73.04
2018-09-14T07:16:49.727Z,72.60
2018-09-14T07:17:49.874Z,72.95
2018-09-14T07:18:50.016Z,72.56
2018-09-14T07:19:50.155Z,72.69
2018-09-14T07:20:50.290Z,72.79
2018-09-14T07:21:50.498Z,72.89
2018-09-14T07:22:50.575Z,72.60
2018-09-14T07:23:50.714Z,73.27
2018-09-14T07:24:51.000Z,73.33
2018-09-14T07:25:50.996Z,73.24
2018-09-14T07:26:51.158Z,72.69
2018-09-14T07:27:51.305Z,72.69
2018-09-14T07:28:51.465Z,72.79
2018-09-14T07:29:51.562Z,72.22
2018-09-14T07:30:51.747Z,72.12
2018-09-14T07:31:52.003Z,72.22
2018-09-14T07:32:52.012Z,72.12
2018-09-14T07:33:52.170Z,72.50
2018-09-14T07:34:52.307Z,72.79
2018-09-14T07:35:52.456Z,72.50
2018-09-14T07:36:52.625Z,72.69
2018-09-14T07:37:52.759Z,72.02
2018-09-14T07:38:52.908Z,71.93
2018-09-14T07:39:53.068Z,71.45
2018-09-14T07:40:53.211Z,72.12
2018-09-14T07:41:53.350Z,72.12
2018-09-14T07:42:53.525Z,72.22
2018-09-14T07:43:53.660Z,71.83
2018-09-14T07:44:53.801Z,72.12
2018-09-14T07:45:53.955Z,72.41
2018-09-14T07:46:54.090Z,72.12
2018-09-14T07:47:54.233Z,72.22
2018-09-14T07:48:54.373Z,72.41
2018-09-14T07:49:54.535Z,72.31
2018-09-14T07:50:54.668Z,72.22
2018-09-14T07:51:54.811Z,71.83
2018-09-14T07:52:54.953Z,72.60
2018-09-14T07:53:55.123Z,72.22
2018-09-14T07:54:55.258Z,72.02
2018-09-14T07:55:55.396Z,71.45
2018-09-14T07:56:55.531Z,71.73
2018-09-14T07:57:55.709Z,71.73
2018-09-14T07:58:55.840Z,72.02
2018-09-14T07:59:55.977Z,72.69
2018-09-14T08:00:56.172Z,72.22
2018-09-14T08:01:56.331Z,72.41
2018-09-14T08:02:56.469Z,72.02
2018-09-14T08:03:56.607Z,72.44
2018-09-14T08:04:56.748Z,72.69
2018-09-14T08:05:56.913Z,72.12
2018-09-14T08:06:57.047Z,72.50
2018-09-14T08:07:57.189Z,72.02
2018-09-14T08:08:57.324Z,72.34
2018-09-14T08:09:57.459Z,72.54
2018-09-14T08:10:57.608Z,72.02
2018-09-14T08:11:57.804Z,72.12
2018-09-14T08:12:57.893Z,72.22
2018-09-14T08:13:58.025Z,72.34
2018-09-14T08:14:58.163Z,72.41
2018-09-14T08:15:58.386Z,71.93
2018-09-14T08:16:58.400Z,71.45
2018-09-14T08:17:58.534Z,72.25
2018-09-14T08:18:58.672Z,72.31
2018-09-14T08:19:58.819Z,72.34
2018-09-14T08:20:58.949Z,72.83
2018-09-14T08:21:59.137Z,72.34
2018-09-14T08:22:59.223Z,72.83
2018-09-14T08:23:59.360Z,72.64
2018-09-14T08:24:59.504Z,72.06
2018-09-14T08:25:59.641Z,71.77
2018-09-14T08:26:59.801Z,71.77
2018-09-14T08:27:59.921Z,71.58
2018-09-14T08:29:00.058Z,71.77
2018-09-14T08:30:00.200Z,71.87
2018-09-14T08:31:00.341Z,71.96
2018-09-14T08:32:00.479Z,72.54
2018-09-14T08:33:00.618Z,71.87
2018-09-14T08:34:00.773Z,72.16
2018-09-14T08:35:00.907Z,72.06
2018-09-14T08:36:01.050Z,72.44
2018-09-14T08:37:01.189Z,72.64
2018-09-14T08:38:01.349Z,72.06
2018-09-14T08:39:01.507Z,72.16
2018-09-14T08:40:01.659Z,71.87
2018-09-14T08:41:01.793Z,72.16
2018-09-14T08:42:01.951Z,71.67
2018-09-14T08:43:02.085Z,71.77
2018-09-14T08:44:02.225Z,71.87
2018-09-14T08:45:02.387Z,71.42
2018-09-14T08:46:02.532Z,71.42
2018-09-14T08:47:02.665Z,71.61
2018-09-14T08:48:02.903Z,71.91
2018-09-14T08:49:02.958Z,71.81
2018-09-14T08:50:03.094Z,71.33
2018-09-14T08:51:03.230Z,71.52
2018-09-14T08:52:03.369Z,71.14
2018-09-14T08:53:03.549Z,71.14
2018-09-14T08:54:03.663Z,71.04
2018-09-14T08:55:03.802Z,70.65
2018-09-14T08:56:03.936Z,70.75
2018-09-14T08:57:04.136Z,70.84
2018-09-14T08:58:04.169Z,71.04
2018-09-14T08:59:04.292Z,70.94
2018-09-14T09:00:05.282Z,70.65
2018-09-14T09:01:04.649Z,70.94
2018-09-14T09:02:04.715Z,71.23
2018-09-14T09:03:04.858Z,70.07
2018-09-14T09:04:04.994Z,70.17
2018-09-14T09:05:05.180Z,70.17
2018-09-14T09:06:05.307Z,71.14
2018-09-14T09:07:05.469Z,71.14
2018-09-14T09:08:05.579Z,70.75
2018-09-14T09:09:05.802Z,71.23
2018-09-14T09:10:05.866Z,71.04
2018-09-14T09:11:06.020Z,70.94
2018-09-14T09:12:06.173Z,70.94
2018-09-14T09:13:06.310Z,70.65
2018-09-14T09:14:06.448Z,70.94
2018-09-14T09:15:06.608Z,71.71
2018-09-14T09:16:06.748Z,71.23
2018-09-14T09:17:06.884Z,71.23
2018-09-14T09:18:07.043Z,71.39
2018-09-14T09:19:07.189Z,71.67
2018-09-14T09:20:07.321Z,71.77
2018-09-14T09:21:07.528Z,72.22
2018-09-14T09:22:07.609Z,72.92
2018-09-14T09:23:07.738Z,73.18
2018-09-14T09:24:07.878Z,73.75
2018-09-14T09:25:08.013Z,74.52
2018-09-14T09:26:08.154Z,74.04
2018-09-14T09:27:08.293Z,73.75
2018-09-14T09:28:08.439Z,73.94
2018-09-14T09:29:08.576Z,73.66
2018-09-14T09:30:08.714Z,73.75
2018-09-14T09:31:08.852Z,73.46
2018-09-14T09:32:08.987Z,73.66
2018-09-14T09:33:09.126Z,73.37
2018-09-14T09:34:09.267Z,74.52
2018-09-14T09:35:09.403Z,74.13
2018-09-14T09:36:10.162Z,74.33
2018-09-14T09:38:42.311Z,74.62
2018-09-14T09:39:42.476Z,74.37
2018-09-14T09:40:42.618Z,73.46
2018-09-14T09:41:42.774Z,73.79
2018-09-14T09:42:42.899Z,73.88
2018-09-14T09:43:43.239Z,74.37
2018-09-14T09:44:43.179Z,73.88
2018-09-14T09:45:43.324Z,73.31
2018-09-14T09:46:43.463Z,73.21
2018-09-14T09:47:43.603Z,73.31
2018-09-14T09:48:43.743Z,73.50
2018-09-14T09:49:43.883Z,74.08
2018-09-14T09:50:44.033Z,73.06
2018-09-14T09:51:44.230Z,73.25
2018-09-14T09:52:44.243Z,72.96
2018-09-14T09:53:44.378Z,72.09
2018-09-14T09:54:44.523Z,72.29
2018-09-14T09:55:44.658Z,72.09
2018-09-14T09:56:44.852Z,72.09
2018-09-14T09:57:44.936Z,72.09
2018-09-14T09:58:45.109Z,72.48
2018-09-14T09:59:45.247Z,71.61
2018-09-14T10:00:45.384Z,71.61
2018-09-14T10:01:45.554Z,72.32
2018-09-14T10:02:45.660Z,71.26
2018-09-14T10:03:45.888Z,71.08
2018-09-14T10:04:45.961Z,70.40
2018-09-14T10:05:46.103Z,70.21
2018-09-14T10:06:46.250Z,70.40
2018-09-14T10:07:46.394Z,69.92
2018-09-14T10:08:46.526Z,70.11
2018-09-14T10:09:46.669Z,70.01
2018-09-14T10:10:46.809Z,69.15
2018-09-14T10:11:46.951Z,70.21
2018-09-14T10:12:47.092Z,70.50
2018-09-14T10:13:47.256Z,70.40
2018-09-14T10:14:47.378Z,69.92
2018-09-14T10:15:47.522Z,71.17
2018-09-14T10:16:47.646Z,70.68
2018-09-14T10:17:47.809Z,70.11
2018-09-14T10:18:47.946Z,69.92
2018-09-14T10:19:48.093Z,70.11
2018-09-14T10:20:48.257Z,70.11
2018-09-14T10:21:48.462Z,70.68
2018-09-14T10:22:48.529Z,70.21
2018-09-14T10:23:48.670Z,70.01
2018-09-14T10:24:48.809Z,69.63
2018-09-14T10:25:48.975Z,69.92
2018-09-14T10:26:49.154Z,70.01
2018-09-14T10:27:49.265Z,69.92
2018-09-14T10:28:49.482Z,69.73
2018-09-14T10:29:49.565Z,70.01
2018-09-14T10:30:49.696Z,70.01
2018-09-14T10:31:49.834Z,70.15
2018-09-14T10:32:50.007Z,69.47
2018-09-14T10:33:50.155Z,68.70
2018-09-14T10:34:50.289Z,68.70
2018-09-14T10:35:50.430Z,68.99
2018-09-14T10:36:50.615Z,68.80
2018-09-14T10:37:51.253Z,68.64
2018-09-14T10:40:23.492Z,67.00
2018-09-14T10:41:23.606Z,66.71
2018-09-14T10:42:23.741Z,66.62
2018-09-14T10:43:23.889Z,66.24
2018-09-14T10:44:24.034Z,66.42
2018-09-14T10:45:24.243Z,66.42
2018-09-14T10:46:24.399Z,66.81
2018-09-14T10:47:24.416Z,65.94
2018-09-14T10:48:24.554Z,65.94
2018-09-14T10:49:24.692Z,66.42
2018-09-14T10:50:24.832Z,66.71
2018-09-14T10:51:24.970Z,66.52
2018-09-14T10:52:25.119Z,66.52
2018-09-14T10:53:25.248Z,66.42
2018-09-14T10:54:25.395Z,65.27
2018-09-14T10:55:25.573Z,65.59
2018-09-14T10:56:25.682Z,64.98
2018-09-14T10:57:25.821Z,64.43
2018-09-14T10:58:25.967Z,63.34
2018-09-14T10:59:26.103Z,63.34
2018-09-14T11:00:26.252Z,64.79
2018-09-14T11:01:26.401Z,64.31
2018-09-14T11:02:26.540Z,64.59
2018-09-14T11:03:26.679Z,64.59
2018-09-14T11:04:26.857Z,64.79
2018-09-14T11:05:26.969Z,64.40
2018-09-14T11:06:27.172Z,64.40
2018-09-14T11:07:27.261Z,64.69
2018-09-14T11:08:27.395Z,64.69
2018-09-14T11:09:27.532Z,64.50
2018-09-14T11:10:27.682Z,64.50
2018-09-14T11:11:27.840Z,64.31
2018-09-14T11:12:28.025Z,64.40
2018-09-14T11:13:28.117Z,63.54
2018-09-14T11:14:28.260Z,63.25
2018-09-14T11:15:28.416Z,63.44
2018-09-14T11:16:28.563Z,63.38
2018-09-14T11:17:28.696Z,63.06
2018-09-14T11:18:28.878Z,62.87
2018-09-14T11:19:28.990Z,63.18
2018-09-14T11:20:29.141Z,63.47
2018-09-14T11:21:29.265Z,63.18
2018-09-14T11:22:29.407Z,63.02
2018-09-14T11:23:29.569Z,62.83
2018-09-14T11:24:29.737Z,62.45
2018-09-14T11:25:29.877Z,62.45
2018-09-14T11:26:29.993Z,61.77
2018-09-14T11:27:30.171Z,61.71
2018-09-14T11:28:30.282Z,61.32
2018-09-14T11:29:30.428Z,60.16
2018-09-14T11:30:30.566Z,59.20
2018-09-14T11:31:30.735Z,58.52
2018-09-14T11:32:30.958Z,59.55
2018-09-14T11:33:31.018Z,59.68
2018-09-14T11:34:31.208Z,59.10
2018-09-14T11:35:31.331Z,61.41
2018-09-14T11:36:31.472Z,60.86
2018-09-14T11:37:31.660Z,60.10
2018-09-14T11:38:31.881Z,57.97
2018-09-14T11:39:31.914Z,57.78
2018-09-14T11:40:32.062Z,57.29
2018-09-14T11:41:32.232Z,58.48
2018-09-14T11:42:32.369Z,56.36
2018-09-14T11:43:32.514Z,56.56
2018-09-14T11:44:32.660Z,55.98
2018-09-14T11:45:32.793Z,55.78
2018-09-14T11:46:32.937Z,55.20
2018-09-14T11:47:33.091Z,55.59
2018-09-14T11:48:33.225Z,55.20
2018-09-14T11:49:33.374Z,56.26
2018-09-14T11:50:33.513Z,56.14
2018-09-14T11:51:33.655Z,56.72
2018-09-14T11:52:33.800Z,56.81
2018-09-14T11:53:33.950Z,56.72
2018-09-14T11:54:34.091Z,57.87
2018-09-14T11:55:34.233Z,57.29
2018-09-14T11:56:34.382Z,57.68
2018-09-14T11:57:34.524Z,56.36
2018-09-14T11:58:34.666Z,55.30
2018-09-14T11:59:34.808Z,55.88
2018-09-14T12:00:34.955Z,56.36
2018-09-14T12:01:35.112Z,55.20
2018-09-14T12:02:35.256Z,55.10
2018-09-14T12:03:35.402Z,54.65
2018-09-14T12:04:35.551Z,54.07
2018-09-14T12:05:35.690Z,54.27
2018-09-14T12:06:35.844Z,53.85
2018-09-14T12:07:35.977Z,54.33
2018-09-14T12:08:36.127Z,53.85
2018-09-14T12:09:36.270Z,54.50
2018-09-14T12:10:36.412Z,55.40
2018-09-14T12:11:36.557Z,54.17
2018-09-14T12:12:36.700Z,54.36
2018-09-14T12:13:36.918Z,54.65
2018-09-14T12:14:36.997Z,54.72
2018-09-14T12:15:37.165Z,54.72
2018-09-14T12:16:37.359Z,54.62
2018-09-14T12:17:37.503Z,54.91
2018-09-14T12:18:37.648Z,54.65
2018-09-14T12:19:37.874Z,54.00
2018-09-14T12:20:37.954Z,53.42
2018-09-14T12:21:38.108Z,52.26
2018-09-14T12:22:38.287Z,51.90
2018-09-14T12:23:38.499Z,53.16
2018-09-14T12:24:38.587Z,52.65
2018-09-14T12:25:38.738Z,53.33
2018-09-14T12:26:38.902Z,51.71
2018-09-14T12:27:39.044Z,50.84
2018-09-14T12:28:39.188Z,51.06
2018-09-14T12:29:39.332Z,50.09
2018-09-14T12:30:39.471Z,49.54
2018-09-14T12:31:39.619Z,49.63
2018-09-14T12:32:39.764Z,49.17
2018-09-14T12:33:39.905Z,47.06
2018-09-14T12:34:40.080Z,47.26
2018-09-14T12:35:40.257Z,46.94
2018-09-14T12:36:40.387Z,46.92
2018-09-14T12:37:40.536Z,47.67
2018-09-14T12:38:40.691Z,48.06
2018-09-14T12:39:40.832Z,48.64
2018-09-14T12:40:40.974Z,49.29
2018-09-14T12:41:41.130Z,49.12
2018-09-14T12:42:41.299Z,49.29
2018-09-14T12:43:41.441Z,49.27
2018-09-14T12:44:41.581Z,48.22
2018-09-14T12:45:41.744Z,45.56
2018-09-14T12:46:41.893Z,44.32
2018-09-14T12:47:42.039Z,44.49
2018-09-14T12:48:42.232Z,44.24
2018-09-14T12:49:42.338Z,44.42
2018-09-14T12:50:42.478Z,44.15
2018-09-14T12:51:42.635Z,42.56
2018-09-14T12:52:42.783Z,40.75
2018-09-14T12:53:42.935Z,39.76
2018-09-14T12:54:43.083Z,39.00
2018-09-14T12:55:43.236Z,39.72
2018-09-14T12:56:43.389Z,41.31
2018-09-14T12:57:43.530Z,43.02
2018-09-14T12:58:43.676Z,44.16